Time;durP1;ratioP1;P1;durP2;ratioP2;P2;SDS_P1;SDS_P2;PMS_P1;PMS_P2;Temp;Humidity;BMP_temperature;BMP_pressure;BME280_temperature;BME280_humidity;BME280_pressure;Samples;Min_cycle;Max_cycle;Signal;HPM_P1;HPM_P2
2021/03/15 00:00:14;;;;;;;5.45;2.80;;;;;;;6.83;62.81;96965.59;4974434;28;20068;-75
2021/03/15 00:02:41;;;;;;;6.57;2.50;;;;;;;6.84;63.18;96969.00;4965440;28;20139;-75
2021/03/15 00:05:09;;;;;;;6.00;3.13;;;;;;;6.86;62.54;96972.13;4962653;28;20085;-75
2021/03/15 00:07:36;;;;;;;7.22;3.88;;;;;;;6.87;63.25;96966.72;4949148;28;20053;-75
2021/03/15 00:10:05;;;;;;;8.90;3.63;;;;;;;6.95;62.64;96957.81;4977691;28;20092;-75
2021/03/15 00:12:32;;;;;;;8.27;3.63;;;;;;;7.08;63.06;96964.59;4986637;28;20029;-76
2021/03/15 00:14:58;;;;;;;7.72;3.00;;;;;;;6.99;62.43;96956.38;4950704;28;20030;-76
2021/03/15 00:17:27;;;;;;;5.20;2.72;;;;;;;7.06;63.18;96962.22;4975319;28;20057;-76
2021/03/15 00:19:53;;;;;;;7.13;3.58;;;;;;;7.12;62.11;96950.16;4964878;28;20034;-76
2021/03/15 00:22:20;;;;;;;6.70;3.63;;;;;;;7.06;62.67;96954.44;4966337;28;20044;-75
2021/03/15 00:24:47;;;;;;;6.70;3.05;;;;;;;7.13;62.67;96962.09;4970927;28;20459;-76
2021/03/15 00:27:14;;;;;;;7.45;3.33;;;;;;;6.92;62.76;96956.50;4983040;28;20041;-75
2021/03/15 00:29:41;;;;;;;7.32;3.10;;;;;;;6.90;62.90;96947.38;4971583;28;20037;-75
2021/03/15 00:32:08;;;;;;;6.78;3.25;;;;;;;6.85;63.17;96947.25;4986964;28;20113;-75
2021/03/15 00:34:35;;;;;;;6.85;3.40;;;;;;;6.84;62.91;96941.31;4971954;28;20061;-76
2021/03/15 00:37:02;;;;;;;4.82;3.20;;;;;;;7.07;62.83;96952.66;4979089;28;20141;-75
2021/03/15 00:39:31;;;;;;;7.60;4.03;;;;;;;7.11;62.62;96948.56;4967921;28;20045;-75
2021/03/15 00:41:58;;;;;;;9.45;4.00;;;;;;;7.21;62.70;96938.44;4972389;28;20045;-76
2021/03/15 00:44:24;;;;;;;7.47;3.25;;;;;;;7.03;62.88;96941.97;4968063;28;20041;-75
2021/03/15 00:46:51;;;;;;;7.85;3.75;;;;;;;7.11;62.01;96940.81;4985127;28;20440;-76
2021/03/15 00:49:17;;;;;;;7.20;3.20;;;;;;;7.06;62.45;96925.97;4977672;28;20382;-75
2021/03/15 00:51:44;;;;;;;9.50;4.13;;;;;;;6.84;63.43;96930.16;4984267;28;20034;-76
2021/03/15 00:54:10;;;;;;;7.30;3.38;;;;;;;6.89;63.60;96925.88;4967711;28;20085;-75
2021/03/15 00:56:37;;;;;;;7.55;3.65;;;;;;;6.97;62.99;96929.13;4983612;28;20045;-75
2021/03/15 00:59:03;;;;;;;11.07;4.28;;;;;;;6.80;63.63;96919.47;4985757;28;20492;-75
2021/03/15 01:01:30;;;;;;;7.25;4.00;;;;;;;6.85;63.33;96918.78;4969652;28;20037;-76
2021/03/15 01:03:56;;;;;;;9.13;4.03;;;;;;;7.01;63.10;96922.47;4958018;28;20417;-75
2021/03/15 01:06:23;;;;;;;7.22;3.42;;;;;;;6.94;63.69;96918.22;4974968;28;20599;-76
2021/03/15 01:08:50;;;;;;;6.70;3.78;;;;;;;6.99;63.55;96916.75;4952973;28;20037;-75
2021/03/15 01:11:17;;;;;;;7.43;3.53;;;;;;;6.93;63.35;96892.56;4964042;28;20030;-76
2021/03/15 01:13:44;;;;;;;8.32;3.70;;;;;;;7.09;62.87;96896.25;4966773;28;20062;-76
2021/03/15 01:16:10;;;;;;;7.70;3.70;;;;;;;6.94;63.38;96884.56;4980465;28;20133;-76
2021/03/15 01:18:40;;;;;;;7.18;3.58;;;;;;;6.92;63.42;96883.22;5000210;28;20045;-76
2021/03/15 01:21:10;;;;;;;7.03;3.22;;;;;;;6.97;61.90;96883.31;4969023;28;20370;-76
2021/03/15 01:23:36;;;;;;;13.02;3.95;;;;;;;6.93;63.50;96879.63;4986863;28;20121;-76
2021/03/15 01:26:03;;;;;;;8.73;3.97;;;;;;;7.10;62.84;96877.13;4981871;28;20432;-76
2021/03/15 01:28:30;;;;;;;7.95;3.28;;;;;;;7.20;63.10;96864.38;4967682;28;20049;-76
2021/03/15 01:30:57;;;;;;;6.05;3.25;;;;;;;7.05;63.02;96867.44;4974694;28;20079;-76
2021/03/15 01:33:24;;;;;;;7.68;3.15;;;;;;;6.99;63.24;96854.63;4968917;28;20378;-76
2021/03/15 01:35:51;;;;;;;7.40;3.30;;;;;;;6.80;63.63;96862.53;4970182;28;20158;-76
2021/03/15 01:38:18;;;;;;;7.43;3.13;;;;;;;6.92;63.80;96846.97;4972880;28;20030;-75
2021/03/15 01:40:45;;;;;;;9.50;3.67;;;;;;;6.96;64.14;96844.72;4973438;28;20037;-76
2021/03/15 01:43:12;;;;;;;6.70;3.95;;;;;;;7.02;63.19;96847.19;4971141;28;20041;-76
2021/03/15 01:45:38;;;;;;;6.35;3.13;;;;;;;7.05;63.46;96841.56;4958685;28;20491;-75
2021/03/15 01:48:11;;;;;;;7.90;3.30;;;;;;;6.98;63.47;96835.72;4971232;28;20038;-76
2021/03/15 01:50:42;;;;;;;10.43;4.20;;;;;;;7.09;63.56;96824.56;4968865;28;20146;-76
2021/03/15 01:53:11;;;;;;;13.45;3.95;;;;;;;6.89;63.78;96816.41;4968333;28;20030;-76
2021/03/15 01:55:38;;;;;;;9.95;3.78;;;;;;;7.11;63.16;96808.78;4953309;28;20084;-76
2021/03/15 01:58:05;;;;;;;6.63;3.42;;;;;;;7.13;63.08;96812.72;4981037;28;20046;-75
2021/03/15 02:00:32;;;;;;;7.85;3.22;;;;;;;7.06;63.79;96800.91;4947161;28;20080;-76
2021/03/15 02:03:00;;;;;;;10.35;4.55;;;;;;;6.86;63.16;96802.09;4979647;28;20042;-76
2021/03/15 02:05:28;;;;;;;7.40;3.60;;;;;;;7.04;63.57;96790.81;4954715;28;20077;-75
2021/03/15 02:07:55;;;;;;;13.85;4.40;;;;;;;7.13;63.69;96789.41;4993274;28;20046;-76
2021/03/15 02:10:23;;;;;;;9.00;3.38;;;;;;;7.07;63.74;96790.34;4982496;28;20038;-76
2021/03/15 02:13:22;;;;;;;8.55;3.85;;;;;;;6.38;64.69;96780.72;4981918;28;20178;-75
2021/03/15 02:16:13;;;;;;;10.25;3.70;;;;;;;6.57;64.80;96781.34;4980419;28;20456;-76
2021/03/15 02:19:01;;;;;;;8.07;3.60;;;;;;;6.75;64.25;96761.50;4984065;28;20034;-76
2021/03/15 02:21:59;;;;;;;7.65;3.63;;;;;;;6.83;64.28;96753.41;4966328;28;20502;-76
2021/03/15 02:24:56;;;;;;;9.65;3.45;;;;;;;6.88;64.06;96756.09;4986233;28;20422;-76
2021/03/15 02:27:49;;;;;;;10.55;4.10;;;;;;;7.03;63.76;96759.97;4986323;28;20034;-76
2021/03/15 02:30:37;;;;;;;8.40;3.35;;;;;;;6.82;64.77;96738.91;4974775;28;20030;-76
2021/03/15 02:34:06;;;;;;;7.25;3.67;;;;;;;6.92;64.04;96739.09;4984742;28;20044;-76
2021/03/15 02:36:35;;;;;;;7.70;3.70;;;;;;;7.21;63.00;96731.28;4926944;29;20036;-76
2021/03/15 02:39:04;;;;;;;10.88;3.72;;;;;;;7.02;64.51;96730.69;4911264;29;20047;-76
2021/03/15 02:41:32;;;;;;;11.13;4.05;;;;;;;7.10;63.90;96729.56;4943015;29;20047;-76
2021/03/15 02:44:00;;;;;;;7.85;3.50;;;;;;;7.22;63.31;96717.34;4911439;29;20427;-76
2021/03/15 02:46:28;;;;;;;8.23;3.60;;;;;;;7.35;63.30;96712.88;4943132;29;20078;-76
2021/03/15 02:48:57;;;;;;;9.45;4.00;;;;;;;7.14;63.81;96702.19;4911811;29;20343;-76
2021/03/15 02:51:26;;;;;;;8.57;3.88;;;;;;;7.27;63.87;96691.53;4921888;29;20495;-75
2021/03/15 02:53:52;;;;;;;7.85;3.90;;;;;;;7.22;64.01;96696.63;4931146;29;20532;-76
2021/03/15 02:56:26;;;;;;;10.18;3.92;;;;;;;7.04;63.62;96697.63;4930930;29;20127;-76
2021/03/15 02:58:55;;;;;;;8.50;3.90;;;;;;;7.01;64.18;96685.16;4915477;29;20129;-75
2021/03/15 03:01:25;;;;;;;8.10;2.92;;;;;;;7.15;63.62;96672.69;4936662;29;20594;-76
2021/03/15 03:03:53;;;;;;;7.45;3.65;;;;;;;7.02;64.34;96670.41;4915542;28;20043;-76
2021/03/15 03:06:22;;;;;;;8.80;3.50;;;;;;;6.88;64.88;96662.13;4944506;28;20042;-76
2021/03/15 03:08:51;;;;;;;9.40;3.90;;;;;;;7.05;64.60;96669.94;4973082;28;20140;-76
2021/03/15 03:11:18;;;;;;;6.85;3.40;;;;;;;7.07;65.37;96658.31;4952756;28;20121;-76
2021/03/15 03:13:45;;;;;;;9.40;3.50;;;;;;;7.11;65.42;96658.63;4974490;28;20038;-76
2021/03/15 03:16:11;;;;;;;8.68;4.07;;;;;;;7.29;64.14;96653.22;4990770;28;20030;-76
2021/03/15 03:18:37;;;;;;;9.27;3.92;;;;;;;7.36;64.25;96649.69;4974473;28;20476;-75
2021/03/15 03:21:05;;;;;;;10.18;3.72;;;;;;;7.40;63.84;96645.59;4978019;28;20112;-75
2021/03/15 03:23:34;;;;;;;8.10;3.72;;;;;;;7.15;64.55;96641.63;4977607;28;20092;-76
2021/03/15 03:26:01;;;;;;;9.23;4.47;;;;;;;6.94;66.06;96635.34;4994060;28;20030;-76
2021/03/15 03:28:27;;;;;;;9.80;4.65;;;;;;;6.90;66.46;96627.22;4978204;28;20025;-76
2021/03/15 03:30:55;;;;;;;9.65;3.55;;;;;;;7.20;64.68;96631.34;4977149;28;20030;-76
2021/03/15 03:33:22;;;;;;;8.82;4.97;;;;;;;7.18;66.03;96633.38;4998670;28;20085;-76
2021/03/15 03:35:49;;;;;;;7.75;4.43;;;;;;;7.19;64.61;96622.00;4963254;28;20524;-76
2021/03/15 03:38:16;;;;;;;8.18;3.65;;;;;;;7.35;64.21;96637.75;5007124;28;20560;-76
2021/03/15 03:40:43;;;;;;;6.93;3.45;;;;;;;7.27;64.34;96628.59;4928526;28;20030;-77
2021/03/15 03:43:09;;;;;;;9.73;3.45;;;;;;;7.31;64.79;96630.47;4969760;28;20053;-76
2021/03/15 03:45:36;;;;;;;6.97;2.75;;;;;;;7.17;65.27;96626.63;4990617;28;20034;-77
2021/03/15 03:48:03;;;;;;;6.28;2.97;;;;;;;6.82;66.22;96629.41;4990618;28;20027;-76
2021/03/15 03:50:31;;;;;;;5.20;2.80;;;;;;;7.25;64.75;96628.84;4974627;28;20030;-76
2021/03/15 03:53:10;;;;;;;7.15;3.00;;;;;;;6.49;67.13;96621.34;4963043;28;20320;-76
2021/03/15 03:55:58;;;;;;;7.95;3.15;;;;;;;6.55;65.68;96622.25;4990182;28;20346;-77
2021/03/15 03:58:23;;;;;;;5.60;3.05;;;;;;;7.21;65.70;96619.19;4973117;28;20108;-76
2021/03/15 04:00:53;;;;;;;7.40;3.42;;;;;;;7.08;64.59;96622.88;4982939;28;20505;-76
2021/03/15 04:03:20;;;;;;;6.78;2.97;;;;;;;7.02;65.36;96614.22;4992457;28;20037;-76
2021/03/15 04:05:51;;;;;;;4.68;3.08;;;;;;;6.74;65.65;96617.66;4976558;28;20034;-76
2021/03/15 04:08:23;;;;;;;7.32;2.72;;;;;;;6.82;65.60;96622.47;5006424;28;20042;-76
2021/03/15 04:10:49;;;;;;;6.68;2.83;;;;;;;6.60;66.25;96604.25;4973859;28;20100;-76
2021/03/15 04:13:18;;;;;;;3.28;2.10;;;;;;;6.22;66.87;96589.31;4973524;28;20472;-76
2021/03/15 04:15:46;;;;;;;7.70;2.28;;;;;;;6.57;66.48;96589.94;4973476;28;20413;-76
2021/03/15 04:18:14;;;;;;;6.30;2.40;;;;;;;6.80;65.66;96606.38;4973818;28;20691;-76
2021/03/15 04:20:42;;;;;;;3.22;2.10;;;;;;;6.29;67.20;96595.94;4977152;28;20354;-76
2021/03/15 04:23:10;;;;;;;7.50;2.55;;;;;;;5.94;68.45;96598.59;4956516;28;20088;-76
2021/03/15 04:25:38;;;;;;;3.70;2.13;;;;;;;6.59;67.05;96594.13;4944117;28;20038;-76
2021/03/15 04:28:05;;;;;;;5.18;2.58;;;;;;;6.40;66.73;96598.72;4976049;28;20109;-76
2021/03/15 04:30:30;;;;;;;4.38;2.53;;;;;;;6.81;66.10;96595.00;4972822;28;20114;-76
2021/03/15 04:32:57;;;;;;;5.55;2.70;;;;;;;6.82;65.99;96606.94;4988125;28;20742;-76
2021/03/15 04:35:30;;;;;;;3.70;1.95;;;;;;;6.97;65.91;96606.38;4989823;28;20026;-76
2021/03/15 04:37:57;;;;;;;4.75;2.00;;;;;;;6.48;66.69;96598.34;4959109;28;20081;-75
2021/03/15 04:40:24;;;;;;;3.25;1.45;;;;;;;6.60;66.56;96600.84;4989536;28;20027;-76
2021/03/15 04:42:50;;;;;;;4.10;1.80;;;;;;;6.78;66.34;96592.88;4972693;28;20030;-76
2021/03/15 04:45:15;;;;;;;2.67;1.70;;;;;;;6.79;65.76;96578.16;4972799;28;20034;-76
2021/03/15 04:47:41;;;;;;;3.15;1.70;;;;;;;6.58;66.89;96595.94;4989506;28;20183;-76
2021/03/15 04:50:09;;;;;;;3.20;1.65;;;;;;;6.37;66.54;96581.84;5004631;28;20416;-76
2021/03/15 04:52:36;;;;;;;2.55;1.63;;;;;;;6.38;66.89;96576.44;4975763;28;20033;-76
2021/03/15 04:55:02;;;;;;;3.45;1.70;;;;;;;6.65;66.35;96577.66;4999214;28;20393;-76
2021/03/15 04:57:28;;;;;;;3.40;1.77;;;;;;;6.69;66.13;96576.97;4991124;28;20113;-76
2021/03/15 04:59:54;;;;;;;2.58;1.45;;;;;;;6.45;67.30;96573.72;4987003;28;20490;-76
2021/03/15 05:02:21;;;;;;;5.93;2.53;;;;;;;6.29;66.79;96564.09;4975365;28;20481;-76
2021/03/15 05:04:48;;;;;;;2.55;1.77;;;;;;;6.30;67.26;96565.69;4992219;28;20025;-76
2021/03/15 05:07:13;;;;;;;4.25;1.65;;;;;;;6.70;66.85;96557.84;4973510;28;20034;-75
2021/03/15 05:09:39;;;;;;;2.53;1.63;;;;;;;6.53;67.24;96562.22;4976142;28;20255;-76
2021/03/15 05:12:06;;;;;;;2.88;1.52;;;;;;;6.50;66.58;96554.94;4991465;28;20116;-76
2021/03/15 05:14:32;;;;;;;3.83;1.80;;;;;;;6.57;65.79;96548.56;4974759;28;20034;-76
2021/03/15 05:16:58;;;;;;;2.30;1.48;;;;;;;6.17;67.85;96539.09;4992064;28;20033;-76
2021/03/15 05:19:24;;;;;;;1.70;1.13;;;;;;;6.51;66.84;96538.38;4991871;28;20531;-76
2021/03/15 05:21:49;;;;;;;2.45;1.15;;;;;;;6.41;67.23;96539.00;4959236;28;20030;-76
2021/03/15 05:24:16;;;;;;;1.70;1.20;;;;;;;6.36;66.78;96534.53;4963224;28;20041;-76
2021/03/15 05:26:41;;;;;;;1.42;0.90;;;;;;;6.52;66.21;96530.38;4956427;28;20026;-76
2021/03/15 05:29:09;;;;;;;1.52;1.10;;;;;;;6.37;66.63;96535.31;5007336;28;20030;-76
2021/03/15 05:31:38;;;;;;;2.22;0.77;;;;;;;6.06;66.62;96532.19;4991229;28;20041;-76
2021/03/15 05:34:05;;;;;;;1.63;0.95;;;;;;;6.25;66.06;96525.00;4966094;28;20042;-76
2021/03/15 05:36:31;;;;;;;2.30;1.10;;;;;;;6.35;66.56;96527.00;5007435;28;20100;-76
2021/03/15 05:38:57;;;;;;;1.40;0.93;;;;;;;6.54;66.04;96530.16;4975742;28;20347;-76
2021/03/15 05:41:32;;;;;;;1.65;0.77;;;;;;;5.84;67.28;96529.41;4988708;28;20536;-76
2021/03/15 05:44:15;;;;;;;1.00;0.63;;;;;;;6.03;66.82;96524.88;4985240;28;20042;-76
2021/03/15 05:46:53;;;;;;;1.90;0.90;;;;;;;6.05;66.52;96524.66;4995904;28;20029;-77
2021/03/15 05:49:37;;;;;;;3.53;0.90;;;;;;;6.37;66.00;96537.88;5008058;28;20034;-77
2021/03/15 05:52:05;;;;;;;1.27;0.70;;;;;;;6.47;65.74;96534.69;5001860;28;20026;-76
2021/03/15 05:55:04;;;;;;;1.33;0.82;;;;;;;6.28;65.59;96536.72;5023096;28;20121;-77
2021/03/15 05:57:48;;;;;;;1.10;0.80;;;;;;;6.09;65.83;96539.47;4985899;28;20120;-79
2021/03/15 06:00:29;;;;;;;1.48;0.90;;;;;;;6.27;65.17;96540.28;4983748;28;20058;-79
2021/03/15 06:03:10;;;;;;;2.10;0.60;;;;;;;6.24;65.21;96530.41;4990618;28;20464;-79
2021/03/15 06:05:36;;;;;;;2.20;0.80;;;;;;;6.49;64.92;96527.47;4974075;28;20034;-79
2021/03/15 06:08:15;;;;;;;1.42;0.90;;;;;;;6.32;65.45;96538.59;4958976;28;20030;-79
2021/03/15 06:11:11;;;;;;;1.20;0.88;;;;;;;6.29;65.79;96540.84;4973929;28;20040;-79
2021/03/15 06:13:38;;;;;;;1.60;0.90;;;;;;;6.41;66.11;96530.44;5011476;28;20029;-79
2021/03/15 06:16:05;;;;;;;1.55;0.88;;;;;;;6.60;65.73;96539.56;4974809;28;20128;-79
2021/03/15 06:18:31;;;;;;;3.20;1.38;;;;;;;6.50;65.59;96529.06;4990859;28;20042;-79
2021/03/15 06:20:57;;;;;;;1.65;1.10;;;;;;;6.60;65.39;96523.25;4985997;28;20673;-78
2021/03/15 06:23:27;;;;;;;2.47;1.33;;;;;;;6.55;65.20;96521.38;5002496;28;20033;-79
2021/03/15 06:25:54;;;;;;;1.63;1.10;;;;;;;6.54;66.01;96524.97;4971667;28;20481;-79
2021/03/15 06:28:20;;;;;;;2.22;0.90;;;;;;;6.49;65.74;96528.25;4986361;28;20681;-80
2021/03/15 06:30:48;;;;;;;2.75;1.10;;;;;;;6.26;66.45;96526.59;4985469;28;20034;-79
2021/03/15 06:33:19;;;;;;;1.10;0.70;;;;;;;6.25;67.38;96532.00;4984619;28;20110;-80
2021/03/15 06:35:48;;;;;;;1.15;0.77;;;;;;;6.52;65.15;96529.59;4974263;28;20663;-80
2021/03/15 06:38:18;;;;;;;3.33;1.20;;;;;;;6.37;65.85;96530.13;4983599;28;20030;-80
2021/03/15 06:40:48;;;;;;;1.85;1.17;;;;;;;6.58;64.92;96536.44;4964546;28;20124;-80
2021/03/15 06:43:16;;;;;;;2.00;0.90;;;;;;;6.68;65.90;96540.97;4974270;28;20069;-80
2021/03/15 06:45:52;;;;;;;1.08;0.90;;;;;;;6.60;64.92;96536.19;4955600;28;20027;-79
2021/03/15 06:48:18;;;;;;;1.17;0.80;;;;;;;6.87;65.13;96544.91;4991145;28;20065;-79
2021/03/15 06:50:44;;;;;;;1.67;0.95;;;;;;;6.88;65.16;96541.28;4991085;28;20096;-79
2021/03/15 06:53:09;;;;;;;1.45;0.90;;;;;;;6.95;65.21;96543.72;4990752;28;20069;-79
2021/03/15 06:55:35;;;;;;;1.80;1.20;;;;;;;6.91;65.16;96546.00;4954468;28;20377;-79
2021/03/15 06:58:01;;;;;;;1.92;1.23;;;;;;;6.89;65.75;96548.03;5005830;28;20503;-79
2021/03/15 07:00:29;;;;;;;2.05;1.10;;;;;;;6.86;64.82;96558.88;4989842;28;20481;-79
2021/03/15 07:03:02;;;;;;;2.08;1.30;;;;;;;6.78;65.65;96556.66;4978307;28;20033;-79
2021/03/15 07:05:29;;;;;;;2.30;1.30;;;;;;;6.88;66.11;96546.47;4975399;28;20370;-79
2021/03/15 07:08:00;;;;;;;2.72;1.80;;;;;;;6.96;65.53;96557.44;4975478;28;20381;-79
2021/03/15 07:10:30;;;;;;;2.03;1.45;;;;;;;6.98;65.33;96545.06;4975349;28;20540;-79
2021/03/15 07:13:13;;;;;;;2.58;1.40;;;;;;;6.84;65.97;96558.31;4997723;28;20117;-79
2021/03/15 07:15:40;;;;;;;2.13;1.60;;;;;;;7.29;65.21;96557.41;4977975;28;20535;-79
2021/03/15 07:18:14;;;;;;;3.63;2.10;;;;;;;7.11;65.63;96568.03;4978463;28;20026;-79
2021/03/15 07:20:56;;;;;;;3.05;1.60;;;;;;;7.16;65.28;96570.69;4978437;28;20176;-79
2021/03/15 07:23:42;;;;;;;3.47;1.92;;;;;;;7.22;65.52;96572.34;5011594;28;20484;-79
2021/03/15 07:26:15;;;;;;;2.90;1.90;;;;;;;7.27;65.48;96569.03;4978552;28;20030;-79
2021/03/15 07:28:41;;;;;;;4.60;2.42;;;;;;;7.31;65.79;96560.53;5005879;28;20064;-79
2021/03/15 07:31:20;;;;;;;3.15;2.45;;;;;;;7.12;66.09;96564.44;4961465;28;20036;-79
2021/03/15 07:33:49;;;;;;;3.10;1.92;;;;;;;7.54;65.18;96576.94;4994782;28;20436;-79
2021/03/15 07:36:17;;;;;;;3.75;2.03;;;;;;;7.58;64.94;96579.81;4989196;28;20092;-79
2021/03/15 07:38:43;;;;;;;4.93;2.53;;;;;;;7.60;65.84;96581.13;4979631;28;20037;-79
2021/03/15 07:41:13;;;;;;;4.85;2.92;;;;;;;7.53;65.53;96585.72;4983751;28;20109;-79
2021/03/15 07:43:39;;;;;;;5.18;2.80;;;;;;;7.59;66.55;96591.72;4993144;28;20080;-79
2021/03/15 07:46:18;;;;;;;5.20;2.85;;;;;;;7.42;66.30;96589.97;4977145;28;20428;-79
2021/03/15 07:48:44;;;;;;;5.90;3.55;;;;;;;7.87;65.45;96588.22;5010353;28;20036;-79
2021/03/15 07:51:10;;;;;;;6.72;4.05;;;;;;;7.96;65.50;96591.94;4975949;28;20034;-79
2021/03/15 07:53:47;;;;;;;5.00;3.20;;;;;;;7.80;63.88;96590.22;4985947;28;20030;-79
2021/03/15 07:56:22;;;;;;;6.10;3.85;;;;;;;7.88;64.59;96600.13;4986076;28;20552;-79
2021/03/15 07:58:50;;;;;;;6.00;4.15;;;;;;;7.97;64.60;96601.28;4987677;28;20038;-76
2021/03/15 08:01:19;;;;;;;7.85;4.63;;;;;;;8.16;65.22;96596.59;4992157;28;20058;-77
2021/03/15 08:03:44;;;;;;;8.27;4.22;;;;;;;8.19;65.24;96600.50;4984745;28;20038;-76
2021/03/15 08:06:11;;;;;;;7.68;4.10;;;;;;;8.30;64.99;96599.59;4972618;28;20088;-76
2021/03/15 08:08:37;;;;;;;6.90;4.07;;;;;;;8.26;64.93;96598.50;4972995;28;20118;-76
2021/03/15 08:11:04;;;;;;;8.10;4.65;;;;;;;8.40;64.94;96615.25;5003931;28;20034;-77
2021/03/15 08:13:35;;;;;;;7.95;4.00;;;;;;;8.55;64.25;96609.47;4973006;28;20038;-77
2021/03/15 08:16:01;;;;;;;6.88;3.90;;;;;;;8.53;64.03;96605.53;4977419;28;20026;-77
2021/03/15 08:18:28;;;;;;;6.50;4.10;;;;;;;8.57;64.31;96607.41;4976039;28;20021;-77
2021/03/15 08:21:05;;;;;;;6.63;4.10;;;;;;;8.35;64.07;96615.19;4974564;28;20146;-76
2021/03/15 08:23:31;;;;;;;5.88;3.92;;;;;;;8.61;64.53;96608.47;4954701;28;20054;-76
2021/03/15 08:26:07;;;;;;;6.53;4.13;;;;;;;8.37;64.54;96623.50;4975759;28;20049;-77
2021/03/15 08:28:34;;;;;;;6.53;3.55;;;;;;;8.73;64.41;96616.13;4970521;28;20081;-77
2021/03/15 08:31:07;;;;;;;6.65;4.45;;;;;;;8.52;64.52;96622.16;4969108;28;20120;-76
2021/03/15 08:33:33;;;;;;;6.63;4.15;;;;;;;8.71;64.66;96622.59;4960026;28;20088;-77
2021/03/15 08:35:58;;;;;;;5.65;3.97;;;;;;;8.72;65.10;96630.13;4966706;28;20209;-76
2021/03/15 08:38:42;;;;;;;5.35;3.40;;;;;;;8.48;65.47;96634.03;4962139;28;20535;-76
2021/03/15 08:41:09;;;;;;;7.53;3.95;;;;;;;9.02;64.62;96634.03;4985292;28;20042;-77
2021/03/15 08:43:39;;;;;;;6.00;3.38;;;;;;;9.02;64.29;96643.63;4987012;28;20069;-77
2021/03/15 08:46:13;;;;;;;5.35;3.28;;;;;;;9.12;64.44;96639.28;4970925;28;20029;-76
2021/03/15 08:48:38;;;;;;;4.72;3.13;;;;;;;9.24;63.81;96651.34;5002750;28;20036;-77
2021/03/15 08:51:05;;;;;;;3.40;2.30;;;;;;;9.04;64.49;96657.16;5001306;28;20414;-77
2021/03/15 08:53:36;;;;;;;5.28;2.92;;;;;;;8.98;64.85;96658.94;4968488;28;20041;-77
2021/03/15 08:56:10;;;;;;;3.05;1.92;;;;;;;9.25;64.29;96668.47;4991827;28;20034;-77
2021/03/15 08:58:37;;;;;;;3.63;2.10;;;;;;;8.99;64.98;96663.06;4967799;28;20523;-77
2021/03/15 09:01:08;;;;;;;3.60;2.42;;;;;;;8.79;65.01;96671.44;5008129;28;20049;-77
2021/03/15 09:03:55;;;;;;;2.67;2.13;;;;;;;8.85;64.57;96670.47;4972856;28;20034;-77
2021/03/15 09:06:30;;;;;;;2.88;1.80;;;;;;;8.75;65.26;96673.75;4981335;28;20096;-77
2021/03/15 09:08:58;;;;;;;3.63;2.08;;;;;;;9.08;64.04;96673.78;5012144;28;20033;-78
2021/03/15 09:11:51;;;;;;;2.85;1.60;;;;;;;8.67;64.33;96676.81;4999541;28;20115;-77
2021/03/15 09:14:17;;;;;;;2.92;1.52;;;;;;;9.20;63.84;96679.59;4972374;28;20050;-77
2021/03/15 09:16:48;;;;;;;2.30;1.50;;;;;;;9.27;63.87;96682.00;4997995;28;20041;-78
2021/03/15 09:19:20;;;;;;;2.30;1.33;;;;;;;9.44;62.42;96680.06;4986499;28;20042;-78
2021/03/15 09:21:49;;;;;;;2.40;1.33;;;;;;;9.70;61.84;96688.06;4966515;28;20037;-78
2021/03/15 09:24:43;;;;;;;2.65;1.20;;;;;;;9.47;63.03;96694.38;4981984;28;20133;-78
2021/03/15 09:27:27;;;;;;;2.42;1.52;;;;;;;9.26;63.83;96702.00;4977620;28;20041;-78
2021/03/15 09:29:56;;;;;;;1.63;1.05;;;;;;;9.19;63.28;96701.44;5002412;28;20038;-78
2021/03/15 09:32:49;;;;;;;0.80;0.32;;;;;;;8.23;62.74;96715.69;5004490;28;20033;-76
2021/03/15 09:35:40;;;;;;;1.35;0.90;;;;;;;8.56;62.32;96712.22;4993095;28;20056;-76
2021/03/15 09:38:07;;;;;;;0.40;0.30;;;;;;;8.94;62.72;96720.16;4993076;28;20092;-78
2021/03/15 09:40:39;;;;;;;1.25;0.40;;;;;;;8.85;61.41;96719.03;4969646;28;20092;-77
2021/03/15 09:43:06;;;;;;;0.93;0.47;;;;;;;8.87;61.62;96719.56;4995840;28;20139;-77
2021/03/15 09:45:34;;;;;;;0.93;0.63;;;;;;;8.54;62.28;96735.03;4949310;28;20411;-77
2021/03/15 09:48:01;;;;;;;0.73;0.40;;;;;;;9.14;60.71;96741.13;4972640;28;20538;-77
2021/03/15 09:50:28;;;;;;;12.35;5.80;;;;;;;9.30;61.44;96734.25;4963529;28;20483;-77
2021/03/15 09:53:05;;;;;;;11.30;6.25;;;;;;;9.21;61.79;96746.13;4957309;28;20056;-77
2021/03/15 09:55:31;;;;;;;1.38;0.82;;;;;;;9.20;60.32;96747.13;4994817;28;20030;-77
2021/03/15 09:58:06;;;;;;;1.30;0.40;;;;;;;8.94;59.91;96746.88;4982399;28;20045;-77
2021/03/15 10:00:32;;;;;;;0.90;0.40;;;;;;;9.45;59.08;96754.38;4944689;28;20421;-77
2021/03/15 10:02:58;;;;;;;0.80;0.50;;;;;;;9.57;59.93;96746.44;4942675;28;20058;-76
2021/03/15 10:05:23;;;;;;;0.60;0.30;;;;;;;9.18;59.66;96749.19;5002160;28;20030;-76
2021/03/15 10:07:49;;;;;;;1.15;0.70;;;;;;;9.05;59.86;96758.19;4982227;28;20424;-77
2021/03/15 10:10:17;;;;;;;0.85;0.60;;;;;;;9.26;59.57;96755.78;4985240;28;20061;-77
2021/03/15 10:12:42;;;;;;;1.27;0.50;;;;;;;9.25;58.84;96762.00;4963007;28;20030;-76
2021/03/15 10:15:10;;;;;;;0.73;0.43;;;;;;;9.54;56.95;96765.13;4961850;28;20068;-76
2021/03/15 10:17:36;;;;;;;1.02;0.40;;;;;;;9.80;58.54;96760.91;5003723;28;20593;-77
2021/03/15 10:20:07;;;;;;;1.20;0.77;;;;;;;9.23;59.52;96764.84;4962676;28;20310;-79
2021/03/15 10:22:33;;;;;;;0.85;0.50;;;;;;;9.79;59.09;96761.94;4979870;28;20034;-77
2021/03/15 10:24:59;;;;;;;1.33;0.93;;;;;;;9.49;57.95;96767.66;4962345;28;20121;-77
2021/03/15 10:27:28;;;;;;;1.23;0.68;;;;;;;9.11;58.86;96770.16;4984264;28;20120;-76
2021/03/15 10:30:06;;;;;;;0.40;0.30;;;;;;;9.17;58.79;96779.59;4959645;28;20038;-77
2021/03/15 10:32:31;;;;;;;1.38;0.40;;;;;;;9.87;57.78;96784.88;4967848;28;20544;-77
2021/03/15 10:34:58;;;;;;;1.80;1.30;;;;;;;9.68;58.10;96801.88;4995774;28;20037;-77
2021/03/15 10:37:27;;;;;;;0.70;0.40;;;;;;;9.34;58.01;96796.91;4989710;28;20049;-75
2021/03/15 10:39:54;;;;;;;4.53;0.80;;;;;;;9.25;57.87;96803.56;4985252;28;20482;-76
2021/03/15 10:42:21;;;;;;;0.70;0.40;;;;;;;9.56;56.43;96795.03;4972831;28;20373;-77
2021/03/15 10:44:47;;;;;;;0.40;0.40;;;;;;;9.86;55.61;96793.69;4985838;28;20034;-77
2021/03/15 10:47:15;;;;;;;1.25;0.20;;;;;;;9.86;55.01;96798.91;4972653;28;20034;-77
2021/03/15 10:49:42;;;;;;;1.77;0.60;;;;;;;10.13;55.69;96787.66;5008622;28;20029;-77
2021/03/15 10:52:08;;;;;;;0.70;0.30;;;;;;;10.32;53.84;96795.88;4989254;28;20072;-77
2021/03/15 10:54:34;;;;;;;0.55;0.30;;;;;;;10.58;53.75;96799.38;4969812;28;20065;-77
2021/03/15 10:57:14;;;;;;;3.17;0.85;;;;;;;9.75;55.42;96798.06;4977155;28;20030;-77
2021/03/15 10:59:40;;;;;;;0.68;0.25;;;;;;;10.19;53.34;96784.03;4983253;28;20033;-77
2021/03/15 11:02:07;;;;;;;0.52;0.30;;;;;;;10.38;53.05;96789.63;5002276;28;20042;-76
2021/03/15 11:04:37;;;;;;;1.75;1.15;;;;;;;9.94;55.36;96800.28;4955677;28;20487;-77
2021/03/15 11:07:21;;;;;;;1.52;0.38;;;;;;;9.73;54.43;96807.91;5005622;28;20155;-77
2021/03/15 11:10:00;;;;;;;2.33;0.60;;;;;;;9.98;54.67;96800.56;5009118;28;20042;-77
2021/03/15 11:12:43;;;;;;;1.17;0.45;;;;;;;9.70;54.60;96803.22;4948281;28;20073;-76
2021/03/15 11:15:25;;;;;;;1.27;0.45;;;;;;;10.20;52.35;96809.03;4968428;28;20080;-77
2021/03/15 11:18:10;;;;;;;1.20;0.45;;;;;;;10.24;52.21;96811.91;4983645;28;20037;-77
2021/03/15 11:20:48;;;;;;;1.30;0.98;;;;;;;9.47;53.92;96816.50;4988775;28;20052;-77
2021/03/15 11:23:31;;;;;;;1.67;1.00;;;;;;;9.36;54.33;96806.03;5014661;28;20037;-77
2021/03/15 11:26:09;;;;;;;0.95;0.43;;;;;;;9.65;52.74;96812.78;4984551;28;20266;-77
2021/03/15 11:28:40;;;;;;;0.60;0.22;;;;;;;10.27;51.54;96814.78;4971925;28;20222;-76
2021/03/15 11:31:06;;;;;;;0.60;0.20;;;;;;;10.06;49.42;96816.50;4967264;28;20045;-76
2021/03/15 11:33:32;;;;;;;0.70;0.20;;;;;;;10.08;51.11;96813.63;4972298;28;20052;-77
2021/03/15 11:36:00;;;;;;;1.13;0.73;;;;;;;10.63;49.58;96817.63;4949321;28;20053;-77
2021/03/15 11:38:26;;;;;;;2.08;0.70;;;;;;;10.59;49.42;96816.59;4970867;28;20042;-77
2021/03/15 11:40:52;;;;;;;0.30;0.25;;;;;;;11.20;49.04;96818.63;4956686;28;20054;-77
2021/03/15 11:43:18;;;;;;;0.30;0.25;;;;;;;11.44;48.86;96823.38;4984134;28;20035;-77
2021/03/15 11:45:43;;;;;;;1.17;0.30;;;;;;;11.56;46.34;96818.69;4984694;28;20458;-78
2021/03/15 11:48:09;;;;;;;0.95;0.30;;;;;;;12.30;43.57;96826.28;4971819;28;20034;-77
2021/03/15 11:50:36;;;;;;;1.55;0.63;;;;;;;12.55;43.58;96825.47;4980085;28;20038;-77
2021/03/15 11:53:03;;;;;;;0.65;0.30;;;;;;;12.84;41.38;96824.84;4976837;28;20038;-77
2021/03/15 11:55:29;;;;;;;0.85;0.32;;;;;;;13.13;40.75;96824.22;4980062;28;20053;-77